Time;durP1;ratioP1;P1;durP2;ratioP2;P2;SDS_P1;SDS_P2;PMS_P1;PMS_P2;Temp;Humidity;BMP_temperature;BMP_pressure;BME280_temperature;BME280_humidity;BME280_pressure;Samples;Min_cycle;Max_cycle;Signal;HPM_P1;HPM_P2
2022/11/08 00:02:10;;;;;;;5.65;4.15;;;;;;;6.27;80.62;96969.34;5095972;28;20505;-61
2022/11/08 00:04:37;;;;;;;11.02;5.10;;;;;;;6.31;79.86;96963.22;5095906;28;20458;-61
2022/11/08 00:15:19;;;;;;;6.68;4.60;;;;;;;6.40;80.53;96974.34;5095793;28;20047;-60
2022/11/08 00:17:46;;;;;;;6.47;4.65;;;;;;;6.45;80.44;96977.75;5095560;28;20048;-61
2022/11/08 00:20:13;;;;;;;7.00;4.05;;;;;;;6.45;80.20;96973.41;5095768;28;20040;-61
2022/11/08 00:22:41;;;;;;;10.00;4.32;;;;;;;6.43;80.73;96974.31;5095194;28;20148;-61
2022/11/08 00:25:08;;;;;;;7.78;4.50;;;;;;;6.43;80.72;96969.13;5095459;28;20123;-60
2022/11/08 00:27:37;;;;;;;7.93;5.43;;;;;;;6.44;81.18;96974.28;5094511;28;20069;-61
2022/11/08 00:30:05;;;;;;;4.53;3.88;;;;;;;6.43;81.30;96964.78;5095361;28;20192;-60
2022/11/08 00:32:32;;;;;;;6.25;4.40;;;;;;;6.45;81.13;96959.56;5095359;28;20127;-60
2022/11/08 00:34:59;;;;;;;8.23;4.57;;;;;;;6.44;80.85;96963.03;5095242;28;20063;-60
2022/11/08 00:37:26;;;;;;;8.43;4.22;;;;;;;6.45;80.85;96962.16;5095228;28;20127;-61
2022/11/08 00:39:53;;;;;;;6.18;4.13;;;;;;;6.44;81.19;96963.03;5095253;28;20047;-61
2022/11/08 00:42:20;;;;;;;7.47;4.15;;;;;;;6.34;81.21;96958.84;5095187;28;20044;-60
2022/11/08 00:44:48;;;;;;;9.20;4.65;;;;;;;6.21;81.19;96961.63;5095214;28;20047;-61
2022/11/08 00:47:15;;;;;;;5.97;3.90;;;;;;;6.23;81.54;96952.06;5095045;28;20051;-61
2022/11/08 00:49:42;;;;;;;7.35;4.55;;;;;;;6.22;81.09;96946.88;5095010;28;20535;-61
2022/11/08 00:52:10;;;;;;;6.20;4.15;;;;;;;6.21;81.13;96947.78;5094965;28;20553;-61
2022/11/08 00:54:37;;;;;;;5.68;4.00;;;;;;;6.12;80.95;96944.44;5094743;28;20059;-60
2022/11/08 00:57:04;;;;;;;6.25;4.38;;;;;;;6.12;81.15;96934.03;5094874;28;20102;-61
2022/11/08 00:59:30;;;;;;;6.95;4.60;;;;;;;6.12;81.09;96935.78;5094744;28;20131;-61
2022/11/08 01:01:59;;;;;;;7.35;4.53;;;;;;;6.08;81.40;96934.94;5094718;28;20084;-60
2022/11/08 01:04:26;;;;;;;8.88;4.93;;;;;;;6.05;81.88;96935.84;5094652;28;20482;-61
2022/11/08 01:06:53;;;;;;;7.65;4.72;;;;;;;5.96;81.87;96935.94;5094563;28;20555;-61
2022/11/08 01:09:20;;;;;;;5.05;3.88;;;;;;;5.88;81.95;96941.25;5094589;28;20104;-61
2022/11/08 01:11:47;;;;;;;7.45;4.40;;;;;;;5.83;82.51;96935.25;5094773;28;20117;-60
2022/11/08 01:14:15;;;;;;;5.60;4.00;;;;;;;5.80;82.64;96932.69;5094505;28;20101;-61
2022/11/08 01:16:43;;;;;;;5.75;4.07;;;;;;;5.72;82.87;96934.53;5094532;28;20048;-60
2022/11/08 01:19:12;;;;;;;7.20;4.35;;;;;;;5.76;82.74;96931.88;5094451;28;20052;-61
2022/11/08 01:21:39;;;;;;;6.43;4.45;;;;;;;5.77;82.69;96930.13;5094332;28;20091;-61
2022/11/08 01:24:07;;;;;;;7.82;4.35;;;;;;;5.82;82.41;96930.94;5094071;28;20048;-61
2022/11/08 01:26:34;;;;;;;7.10;4.32;;;;;;;5.83;83.17;96924.88;5094320;28;20048;-61
2022/11/08 01:29:01;;;;;;;5.57;4.50;;;;;;;5.78;82.32;96924.91;5094182;28;20040;-61
2022/11/08 01:31:29;;;;;;;5.95;4.30;;;;;;;5.78;82.08;96924.06;5094285;28;20125;-60
2022/11/08 01:33:57;;;;;;;7.78;5.13;;;;;;;5.82;82.21;96921.41;5094092;28;20083;-61
2022/11/08 01:36:28;;;;;;;6.72;4.55;;;;;;;5.83;82.12;96919.66;5094137;28;20059;-60
2022/11/08 01:38:56;;;;;;;;;;;;;;;5.74;81.88;96928.44;5094291;28;20105;-60
2022/11/08 01:41:25;;;;;;;6.45;4.20;;;;;;;5.66;82.49;96925.94;5093916;28;19920;-61
2022/11/08 01:43:52;;;;;;;6.68;4.65;;;;;;;5.68;82.85;96924.19;5093967;28;20203;-60
2022/11/08 01:46:44;;;;;;;8.70;4.80;;;;;;;5.69;82.76;96915.50;5093938;28;20048;-61
2022/11/08 01:49:28;;;;;;;5.97;4.30;;;;;;;5.75;82.28;96919.75;5093829;28;20048;-60
2022/11/08 01:52:05;;;;;;;6.03;3.85;;;;;;;5.79;81.97;96928.38;5093709;28;20055;-61
2022/11/08 01:54:36;;;;;;;7.00;4.75;;;;;;;5.80;82.31;96928.38;5093765;28;20103;-61
2022/11/08 01:57:07;;;;;;;8.27;4.63;;;;;;;5.85;82.21;96923.13;5093773;28;20048;-60
2022/11/08 01:59:38;;;;;;;6.85;5.03;;;;;;;5.86;82.64;96918.75;5093730;28;20047;-60
2022/11/08 02:02:07;;;;;;;9.32;5.38;;;;;;;5.93;82.97;96921.25;5093720;28;20044;-60
2022/11/08 02:04:34;;;;;;;7.28;4.68;;;;;;;5.98;82.47;96917.75;5093633;28;20095;-61
2022/11/08 02:07:05;;;;;;;10.75;4.80;;;;;;;5.97;82.30;96916.03;5093598;28;20050;-60
2022/11/08 02:09:33;;;;;;;7.95;5.75;;;;;;;5.95;83.17;96910.84;5093562;28;20079;-61
2022/11/08 02:12:00;;;;;;;11.27;5.50;;;;;;;6.01;82.76;96909.91;5093600;28;20081;-61
2022/11/08 02:14:27;;;;;;;8.13;5.18;;;;;;;6.07;82.58;96912.47;5093290;28;20482;-61
2022/11/08 02:16:55;;;;;;;10.68;5.45;;;;;;;6.08;82.45;96908.97;5093515;28;20079;-61
2022/11/08 02:19:31;;;;;;;7.13;5.30;;;;;;;6.03;82.80;96909.03;5093432;28;20048;-61
2022/11/08 02:22:04;;;;;;;7.75;5.32;;;;;;;6.04;83.67;96912.50;5093334;28;20608;-61
2022/11/08 02:24:34;;;;;;;8.80;5.20;;;;;;;6.03;83.87;96908.16;5093172;28;20052;-61
2022/11/08 02:27:02;;;;;;;9.32;5.85;;;;;;;6.09;84.15;96902.91;5093302;28;20087;-62
2022/11/08 02:29:31;;;;;;;7.65;5.18;;;;;;;6.13;84.21;96901.97;5093238;28;20074;-61
2022/11/08 02:31:59;;;;;;;12.63;6.20;;;;;;;6.18;83.27;96904.53;5093146;28;20135;-62
2022/11/08 02:34:30;;;;;;;7.38;5.32;;;;;;;6.16;83.00;96907.13;5093253;28;20132;-62
2022/11/08 02:36:58;;;;;;;14.65;5.65;;;;;;;6.25;82.80;96903.53;5093305;28;20044;-61
2022/11/08 02:39:25;;;;;;;10.27;6.03;;;;;;;6.33;82.86;96903.44;5093385;28;20047;-61
2022/11/08 02:41:54;;;;;;;7.80;5.93;;;;;;;6.35;83.47;96904.25;5093431;28;20056;-62
2022/11/08 02:44:21;;;;;;;8.60;5.65;;;;;;;6.37;83.39;96907.69;5093061;28;20140;-61
2022/11/08 02:46:48;;;;;;;10.85;6.50;;;;;;;6.42;83.69;96902.44;5093136;28;20044;-61
2022/11/08 02:49:15;;;;;;;13.80;6.43;;;;;;;6.46;84.41;96906.69;5093019;28;20123;-61
2022/11/08 02:51:42;;;;;;;13.75;6.07;;;;;;;6.49;83.86;96901.44;5096709;28;20059;-62
2022/11/08 02:54:09;;;;;;;10.18;5.80;;;;;;;6.53;84.21;96908.31;5097129;28;20073;-60
2022/11/08 02:56:36;;;;;;;8.27;5.32;;;;;;;6.57;83.38;96901.34;5097109;28;20134;-62
2022/11/08 02:59:05;;;;;;;8.80;5.15;;;;;;;6.54;83.23;96897.03;5097143;28;20090;-62
2022/11/08 03:01:32;;;;;;;9.73;5.95;;;;;;;6.52;83.21;96905.72;5097112;28;20048;-61
2022/11/08 03:03:59;;;;;;;9.63;5.85;;;;;;;6.51;83.49;96901.44;5097161;28;20074;-62
2022/11/08 03:06:26;;;;;;;11.57;5.78;;;;;;;6.46;83.38;96904.09;5097136;28;20084;-61
2022/11/08 03:08:53;;;;;;;13.43;6.18;;;;;;;6.49;83.45;96892.78;5096884;28;20052;-61
2022/11/08 03:11:20;;;;;;;10.85;5.50;;;;;;;6.52;82.43;96901.41;5096888;28;20052;-61
2022/11/08 03:13:47;;;;;;;9.27;6.50;;;;;;;6.57;82.34;96896.13;5096820;28;20088;-61
2022/11/08 03:16:15;;;;;;;16.90;6.30;;;;;;;6.55;82.37;96900.50;5096920;28;20048;-61
2022/11/08 03:18:42;;;;;;;15.95;6.55;;;;;;;6.49;82.90;96908.38;5096685;28;20079;-61
2022/11/08 03:21:11;;;;;;;12.48;5.88;;;;;;;6.47;83.40;96895.41;5096595;28;20052;-62
2022/11/08 03:23:38;;;;;;;9.05;6.47;;;;;;;6.42;82.90;96895.47;5096434;28;20548;-62
2022/11/08 03:26:05;;;;;;;8.57;6.45;;;;;;;6.35;83.43;96898.22;5096591;28;20131;-61
2022/11/08 03:28:33;;;;;;;9.25;6.25;;;;;;;6.34;83.51;96893.88;5096523;28;20048;-61
2022/11/08 03:31:00;;;;;;;11.15;6.45;;;;;;;6.33;83.56;96895.63;5096604;28;20378;-62
2022/11/08 03:33:28;;;;;;;11.52;6.75;;;;;;;6.38;83.28;96903.38;5096498;28;20109;-61
2022/11/08 03:35:55;;;;;;;13.55;6.85;;;;;;;6.43;82.99;96897.22;5096380;28;20125;-62
2022/11/08 03:38:22;;;;;;;13.23;6.85;;;;;;;6.43;82.50;96904.13;5096359;28;20051;-62
2022/11/08 03:40:49;;;;;;;16.60;8.05;;;;;;;6.47;82.40;96907.56;5096248;28;20059;-61
2022/11/08 03:43:16;;;;;;;11.18;6.63;;;;;;;6.48;81.90;96906.66;5096389;28;20048;-61
2022/11/08 03:45:45;;;;;;;11.05;6.30;;;;;;;6.44;81.65;96916.25;5096116;28;20048;-61
2022/11/08 03:48:12;;;;;;;9.63;6.32;;;;;;;6.43;81.93;96912.81;5096284;28;20173;-61
2022/11/08 03:50:40;;;;;;;10.07;6.65;;;;;;;6.42;81.29;96908.47;5096083;28;20040;-61
2022/11/08 03:53:07;;;;;;;17.38;8.30;;;;;;;6.37;81.52;96912.91;5096223;28;20078;-61
2022/11/08 03:55:34;;;;;;;12.50;5.65;;;;;;;6.35;81.56;96913.81;5095967;28;20048;-61
2022/11/08 03:58:01;;;;;;;8.23;6.10;;;;;;;6.37;81.45;96912.91;5096010;28;20557;-61
2022/11/08 04:00:29;;;;;;;10.23;6.80;;;;;;;6.37;80.91;96907.69;5095938;28;20052;-61
2022/11/08 04:03:01;;;;;;;18.90;7.47;;;;;;;6.35;80.79;96909.44;5094544;28;20444;-61
2022/11/08 04:05:31;;;;;;;12.00;6.43;;;;;;;6.37;80.94;96904.22;5095877;28;20051;-61
2022/11/08 04:08:00;;;;;;;15.73;6.82;;;;;;;6.29;80.72;96902.59;5096028;28;20050;-61
2022/11/08 04:10:27;;;;;;;10.82;6.93;;;;;;;6.25;81.02;96905.28;5095806;28;20052;-61
2022/11/08 04:15:39;;;;;;;13.30;7.25;;;;;;;6.21;81.28;96904.47;5095755;28;20059;-61
2022/11/08 04:23:37;;;;;;;9.55;6.32;;;;;;;6.23;82.75;96900.09;5095477;28;20047;-61
2022/11/08 04:26:10;;;;;;;14.77;7.07;;;;;;;6.25;82.94;96913.06;5095469;28;20101;-61
2022/11/08 04:28:39;;;;;;;11.45;6.82;;;;;;;6.30;82.76;96912.09;5095477;28;20048;-61
2022/11/08 04:31:08;;;;;;;12.77;7.70;;;;;;;6.32;82.76;96915.56;5095522;28;20094;-61
2022/11/08 04:33:35;;;;;;;13.55;6.15;;;;;;;6.30;83.12;96913.88;5095533;28;20072;-61
2022/11/08 04:36:04;;;;;;;10.80;6.90;;;;;;;6.31;83.40;96911.25;5095185;28;20089;-61
2022/11/08 04:38:31;;;;;;;11.98;7.03;;;;;;;6.32;83.72;96914.69;5095201;28;20110;-60
2022/11/08 04:41:02;;;;;;;11.80;7.63;;;;;;;6.38;83.68;96918.97;5095219;28;20410;-60
2022/11/08 04:43:30;;;;;;;13.23;7.28;;;;;;;6.36;84.16;96913.78;5095057;28;20508;-61
2022/11/08 04:46:01;;;;;;;12.30;7.93;;;;;;;6.33;84.66;96916.44;5095089;28;20047;-61
2022/11/08 04:48:28;;;;;;;10.73;7.13;;;;;;;6.41;84.70;96918.91;5095092;28;20522;-61
2022/11/08 04:50:56;;;;;;;10.95;7.85;;;;;;;6.42;84.86;96918.03;5095003;28;20051;-61
2022/11/08 04:53:23;;;;;;;14.98;7.03;;;;;;;6.49;84.81;96916.19;5094901;28;20066;-61
2022/11/08 04:55:50;;;;;;;12.27;7.45;;;;;;;6.55;84.49;96918.69;5094827;28;20044;-61
2022/11/08 04:58:18;;;;;;;14.68;7.88;;;;;;;6.62;85.35;96917.69;5094970;28;20047;-61
2022/11/08 05:00:45;;;;;;;12.10;7.30;;;;;;;6.69;86.01;96918.47;5094745;28;20131;-61
2022/11/08 05:03:13;;;;;;;13.25;6.90;;;;;;;6.75;85.24;96917.50;5094665;28;20050;-61
2022/11/08 05:05:40;;;;;;;10.00;6.97;;;;;;;6.79;85.11;96920.03;5094732;28;20044;-61
2022/11/08 05:08:07;;;;;;;14.68;7.78;;;;;;;6.82;84.65;96917.38;5094724;28;20051;-61
2022/11/08 05:10:34;;;;;;;11.43;6.93;;;;;;;6.88;84.45;96919.03;5094618;28;20453;-61
2022/11/08 05:13:02;;;;;;;13.15;7.53;;;;;;;6.89;84.43;96923.31;5094125;28;20093;-60
2022/11/08 05:15:30;;;;;;;13.27;7.88;;;;;;;6.95;84.34;96924.97;5094464;28;20044;-61
2022/11/08 05:17:58;;;;;;;15.70;7.13;;;;;;;7.00;84.19;96923.16;5094357;28;20070;-61
2022/11/08 05:23:25;;;;;;;10.48;7.50;;;;;;;6.99;84.34;96921.44;5094255;28;20063;-61
2022/11/08 05:25:54;;;;;;;12.35;7.28;;;;;;;7.04;84.76;96921.34;5094303;28;20558;-61
2022/11/08 05:28:22;;;;;;;17.25;8.80;;;;;;;7.10;85.38;96928.19;5094324;28;20134;-61
2022/11/08 05:30:55;;;;;;;15.68;8.02;;;;;;;7.16;86.24;96930.66;5094181;28;20048;-61
2022/11/08 05:33:23;;;;;;;11.13;7.45;;;;;;;7.20;86.14;96930.59;5094103;28;20047;-61
2022/11/08 05:35:51;;;;;;;21.02;7.45;;;;;;;7.29;86.06;96933.91;5094011;28;20044;-61
2022/11/08 05:38:18;;;;;;;17.50;6.70;;;;;;;7.32;86.66;96934.69;5094095;28;20044;-61
2022/11/08 05:40:46;;;;;;;14.68;7.57;;;;;;;7.36;86.27;96934.66;5093988;28;20101;-61
2022/11/08 05:43:13;;;;;;;12.00;6.93;;;;;;;7.36;85.82;96938.13;5094100;28;20047;-61
2022/11/08 05:45:40;;;;;;;13.30;6.65;;;;;;;7.37;85.88;96952.00;5094078;28;20121;-61
2022/11/08 05:48:09;;;;;;;15.50;8.30;;;;;;;7.39;85.00;96958.03;5093991;28;20071;-60
2022/11/08 05:50:37;;;;;;;11.93;7.30;;;;;;;7.44;84.29;96966.63;5093897;28;20513;-61
2022/11/08 05:53:04;;;;;;;11.93;6.80;;;;;;;7.43;84.27;96970.09;5093823;28;20044;-60
2022/11/08 05:55:31;;;;;;;12.90;7.97;;;;;;;7.46;83.69;96978.72;5093742;28;20059;-60
2022/11/08 05:57:59;;;;;;;15.75;7.68;;;;;;;7.48;83.72;96983.03;5093776;28;20387;-61
2022/11/08 06:00:26;;;;;;;11.90;7.95;;;;;;;7.49;83.39;96988.19;5093645;28;20083;-60
2022/11/08 06:02:53;;;;;;;12.82;8.48;;;;;;;7.54;83.73;96990.72;5093648;28;20076;-60
2022/11/08 06:05:22;;;;;;;11.45;7.90;;;;;;;7.60;83.73;96988.00;5093635;28;20078;-61
2022/11/08 06:07:49;;;;;;;14.25;8.35;;;;;;;7.67;83.87;97001.75;5093578;28;20457;-60
2022/11/08 06:10:16;;;;;;;13.10;7.35;;;;;;;7.71;84.05;97009.47;5093657;28;20044;-60
2022/11/08 06:12:43;;;;;;;15.02;8.25;;;;;;;7.75;84.07;97005.09;5093628;28;20066;-61
2022/11/08 06:15:11;;;;;;;10.88;7.13;;;;;;;7.81;84.18;97001.50;5093363;28;20048;-61
2022/11/08 06:17:38;;;;;;;9.65;6.55;;;;;;;7.89;83.78;97001.34;5093463;28;20101;-61
2022/11/08 06:20:06;;;;;;;12.68;7.07;;;;;;;7.95;83.59;97004.69;5093430;28;20044;-60
2022/11/08 06:22:35;;;;;;;10.60;7.15;;;;;;;8.02;83.85;97012.38;5093123;28;20054;-61
2022/11/08 06:25:03;;;;;;;17.08;8.52;;;;;;;8.05;84.09;97009.72;5092543;28;20060;-60
2022/11/08 06:27:30;;;;;;;13.23;7.53;;;;;;;8.14;84.31;97006.06;5093031;28;20040;-61
2022/11/08 06:29:58;;;;;;;14.88;7.68;;;;;;;8.25;84.24;97014.50;5093232;28;20048;-60
2022/11/08 06:32:25;;;;;;;13.27;8.05;;;;;;;8.37;84.44;97012.53;5093211;28;20048;-61
2022/11/08 06:34:52;;;;;;;12.40;7.05;;;;;;;8.50;84.75;97010.53;5093048;28;20048;-60
2022/11/08 06:37:19;;;;;;;15.43;8.00;;;;;;;8.64;84.64;97011.09;5093199;28;20052;-61
2022/11/08 06:39:48;;;;;;;14.00;7.70;;;;;;;8.82;84.68;97006.38;5093246;28;20044;-60
2022/11/08 06:42:15;;;;;;;14.02;7.25;;;;;;;8.98;84.89;97005.06;5093112;28;20047;-60
2022/11/08 06:44:42;;;;;;;12.05;7.45;;;;;;;9.14;84.82;97011.69;5093072;28;20052;-61
2022/11/08 06:47:09;;;;;;;10.40;7.07;;;;;;;9.34;85.04;97009.41;5093030;28;20076;-61
2022/11/08 06:49:37;;;;;;;11.27;7.30;;;;;;;9.70;84.57;97011.09;5093111;28;20048;-62
2022/11/08 06:52:04;;;;;;;11.35;7.45;;;;;;;10.16;83.08;97009.88;5093055;28;20047;-61
2022/11/08 06:54:31;;;;;;;14.25;7.45;;;;;;;10.47;81.99;97006.38;5092978;28;20083;-60
2022/11/08 06:57:00;;;;;;;9.00;6.00;;;;;;;10.70;81.23;97003.06;5092949;28;20387;-62
2022/11/08 06:59:28;;;;;;;9.55;5.97;;;;;;;10.88;80.61;96995.53;5093030;28;20093;-62
2022/11/08 07:01:56;;;;;;;9.52;6.43;;;;;;;11.12;80.44;97008.75;5092891;28;20086;-61
2022/11/08 07:04:24;;;;;;;11.73;7.15;;;;;;;11.67;80.24;97002.53;5093010;28;20118;-61
2022/11/08 07:06:51;;;;;;;9.52;6.05;;;;;;;12.58;75.95;97000.13;5093036;28;20067;-62
2022/11/08 07:09:18;;;;;;;8.23;5.43;;;;;;;13.20;73.36;97002.06;5093107;28;20113;-61
2022/11/08 07:11:45;;;;;;;10.45;5.75;;;;;;;13.29;70.28;97007.84;5092918;28;20048;-61
2022/11/08 07:14:14;;;;;;;8.02;5.82;;;;;;;13.68;69.15;97007.13;5092808;28;20048;-62
2022/11/08 07:16:42;;;;;;;9.60;6.03;;;;;;;14.21;65.56;97009.22;5092569;28;20059;-62
2022/11/08 07:19:09;;;;;;;7.68;5.35;;;;;;;14.15;66.58;97011.19;5092794;28;20048;-62
2022/11/08 07:21:36;;;;;;;7.88;5.63;;;;;;;14.09;67.11;97005.38;5092715;28;20051;-61
2022/11/08 07:24:03;;;;;;;11.65;6.45;;;;;;;14.01;66.89;97010.97;5092503;28;20056;-61
2022/11/08 07:26:30;;;;;;;9.43;6.13;;;;;;;14.01;66.60;97008.34;5092653;28;20048;-61
2022/11/08 07:28:57;;;;;;;11.38;7.03;;;;;;;14.08;66.19;97011.53;5092932;28;20051;-61
2022/11/08 07:31:28;;;;;;;9.30;6.30;;;;;;;14.33;65.67;97002.56;5092713;28;20098;-61
2022/11/08 07:33:55;;;;;;;11.23;5.95;;;;;;;14.68;63.69;97007.94;5092720;28;20056;-61
2022/11/08 07:36:22;;;;;;;11.02;6.30;;;;;;;14.81;62.40;96999.50;5093956;28;20106;-61
2022/11/08 07:38:49;;;;;;;12.55;6.97;;;;;;;14.89;62.79;97005.25;5096400;28;20093;-61
2022/11/08 07:41:16;;;;;;;10.77;6.97;;;;;;;14.99;62.51;96998.59;5096308;28;20052;-61
2022/11/08 07:43:43;;;;;;;7.97;5.85;;;;;;;15.26;61.72;97000.81;5096277;28;20044;-61
2022/11/08 07:46:10;;;;;;;7.68;5.53;;;;;;;15.60;60.08;96997.41;5096317;28;20048;-61
2022/11/08 07:48:39;;;;;;;8.15;6.30;;;;;;;15.63;59.25;96997.25;5096234;28;20144;-61
2022/11/08 07:51:06;;;;;;;8.70;5.78;;;;;;;15.66;59.51;97000.56;5096213;28;20075;-61
2022/11/08 07:53:33;;;;;;;11.38;6.93;;;;;;;15.66;59.65;97008.47;5096089;28;20424;-61
2022/11/08 07:56:00;;;;;;;12.25;7.20;;;;;;;15.78;59.37;97004.34;5095982;28;20052;-61
2022/11/08 07:58:27;;;;;;;10.75;6.95;;;;;;;15.69;57.14;96993.44;5096045;28;20048;-61
2022/11/08 08:01:01;;;;;;;14.32;7.03;;;;;;;15.74;58.14;97000.19;5095947;28;20083;-61
2022/11/08 08:03:28;;;;;;;10.70;6.82;;;;;;;15.81;58.49;97005.13;5096024;28;20044;-61
2022/11/08 08:05:57;;;;;;;10.23;7.60;;;;;;;15.84;58.51;97002.34;5095888;28;20048;-61
2022/11/08 08:08:24;;;;;;;12.90;7.95;;;;;;;15.88;57.21;96999.47;5095867;28;20528;-62
2022/11/08 08:10:52;;;;;;;8.52;6.25;;;;;;;15.91;55.54;96999.31;5095736;28;20044;-61
2022/11/08 08:13:19;;;;;;;14.10;7.43;;;;;;;15.87;55.47;96994.28;5095742;28;20050;-62
2022/11/08 08:15:46;;;;;;;17.10;7.93;;;;;;;15.85;56.03;96997.00;5095540;28;20474;-61
2022/11/08 08:18:13;;;;;;;14.43;7.13;;;;;;;15.88;56.19;96999.47;5095682;28;20559;-61
2022/11/08 08:20:40;;;;;;;11.55;6.70;;;;;;;15.92;55.42;96992.22;5095520;28;20052;-61
2022/11/08 08:23:08;;;;;;;9.27;6.40;;;;;;;15.93;55.77;96996.59;5095632;28;20055;-61
2022/11/08 08:25:36;;;;;;;11.45;6.90;;;;;;;15.84;57.41;97002.34;5095417;28;20052;-61
2022/11/08 08:28:04;;;;;;;8.73;6.43;;;;;;;15.74;56.89;96997.53;5095505;28;20048;-62
2022/11/08 08:30:32;;;;;;;14.05;7.60;;;;;;;15.79;57.35;97002.59;5095393;28;20117;-61
2022/11/08 08:33:04;;;;;;;11.60;6.10;;;;;;;15.92;56.19;96989.59;5095442;28;20105;-61
2022/11/08 08:35:31;;;;;;;10.55;5.97;;;;;;;15.93;56.02;96988.69;5095283;28;20086;-61
2022/11/08 08:38:00;;;;;;;7.97;5.35;;;;;;;16.00;55.44;96998.00;5095401;28;20044;-61
2022/11/08 08:40:29;;;;;;;11.27;6.40;;;;;;;16.03;55.52;96992.56;5095273;28;20409;-61
2022/11/08 08:42:58;;;;;;;8.90;5.07;;;;;;;16.07;54.54;96995.03;5095164;28;20052;-61
2022/11/08 08:45:26;;;;;;;12.00;5.77;;;;;;;16.02;53.58;96995.28;5095184;28;20058;-61
2022/11/08 08:47:55;;;;;;;8.75;5.43;;;;;;;16.01;54.05;96994.41;5094261;28;20474;-61
2022/11/08 08:50:23;;;;;;;7.72;5.28;;;;;;;15.96;53.63;96996.47;5094970;28;20130;-61
2022/11/08 08:52:50;;;;;;;14.02;6.07;;;;;;;15.91;54.19;97001.09;5095016;28;20052;-61
2022/11/08 08:55:18;;;;;;;9.70;6.18;;;;;;;15.79;53.49;97008.72;5094893;28;20489;-61
2022/11/08 08:57:47;;;;;;;12.60;6.88;;;;;;;15.65;54.31;97001.50;5094996;28;20094;-61
2022/11/08 09:00:15;;;;;;;18.58;7.43;;;;;;;15.49;54.69;97006.72;5094973;28;20043;-61
2022/11/08 09:02:43;;;;;;;14.90;7.38;;;;;;;15.22;55.39;97004.53;5094894;28;20091;-61
2022/11/08 09:05:12;;;;;;;15.60;7.90;;;;;;;14.99;55.69;97017.03;5094747;28;20051;-61
2022/11/08 09:07:40;;;;;;;17.15;8.68;;;;;;;14.82;56.21;97011.72;5094605;28;20559;-61
2022/11/08 09:10:09;;;;;;;16.42;9.43;;;;;;;14.49;57.65;97006.19;5094821;28;20047;-61
2022/11/08 09:12:37;;;;;;;16.95;9.18;;;;;;;14.44;57.79;97015.19;5094536;28;20453;-61
2022/11/08 09:15:07;;;;;;;22.38;8.98;;;;;;;14.31;58.11;97012.28;5094601;28;20480;-61
2022/11/08 09:17:34;;;;;;;15.57;8.15;;;;;;;14.28;58.60;97016.78;5094573;28;20044;-60
2022/11/08 09:20:02;;;;;;;16.48;9.10;;;;;;;14.29;59.01;97015.00;5094579;28;20062;-61
2022/11/08 09:22:29;;;;;;;16.88;9.55;;;;;;;14.29;58.95;97015.00;5094149;28;20136;-61
2022/11/08 09:24:56;;;;;;;14.95;8.52;;;;;;;14.34;58.88;97014.78;5094468;28;20088;-62
2022/11/08 09:27:23;;;;;;;22.48;8.90;;;;;;;14.42;59.27;97017.06;5094357;28;20456;-61
2022/11/08 09:29:50;;;;;;;22.95;9.70;;;;;;;14.49;59.44;97023.75;5094283;28;20044;-61
2022/11/08 09:32:19;;;;;;;18.27;9.00;;;;;;;14.60;59.13;97018.00;5094215;28;20089;-60
2022/11/08 09:34:46;;;;;;;19.67;9.48;;;;;;;14.60;59.33;97023.25;5094185;28;20044;-61
2022/11/08 09:37:13;;;;;;;13.50;8.05;;;;;;;14.73;58.99;97020.91;5094027;28;20130;-61
2022/11/08 09:39:40;;;;;;;15.95;9.65;;;;;;;14.84;58.40;97009.91;5094184;28;20052;-60
2022/11/08 09:42:26;;;;;;;13.73;8.13;;;;;;;14.91;58.04;97006.03;5094132;28;20048;-61
2022/11/08 09:45:15;;;;;;;18.05;8.35;;;;;;;14.95;58.00;97007.59;5093439;28;20522;-61
2022/11/08 09:47:46;;;;;;;14.45;8.68;;;;;;;14.95;58.08;97007.59;5081687;28;20056;-61
2022/11/08 09:50:21;;;;;;;13.85;8.63;;;;;;;14.97;57.87;97007.50;5093874;28;20162;-60
2022/11/08 09:52:54;;;;;;;13.75;8.77;;;;;;;15.13;57.76;97011.09;5093821;28;20040;-61
2022/11/08 09:55:29;;;;;;;14.65;8.57;;;;;;;15.25;57.05;97006.16;5093880;28;20047;-60
2022/11/08 09:58:19;;;;;;;16.10;8.07;;;;;;;15.31;56.75;97005.84;5093710;28;20048;-61
2022/11/08 10:00:49;;;;;;;16.73;8.50;;;;;;;15.43;56.80;97008.78;5093655;28;20127;-61
2022/11/08 10:03:20;;;;;;;20.63;8.48;;;;;;;15.48;56.15;97007.66;5093745;28;20092;-61
2022/11/08 10:05:58;;;;;;;16.77;8.25;;;;;;;15.46;56.42;97001.59;5093607;28;20568;-61
2022/11/08 10:08:31;;;;;;;15.52;8.68;;;;;;;15.51;56.30;97001.38;5093553;28;20123;-61
2022/11/08 10:11:17;;;;;;;15.15;8.40;;;;;;;15.44;56.02;96997.34;5093457;28;20048;-60
2022/11/08 10:13:56;;;;;;;16.48;8.48;;;;;;;15.45;56.36;96999.03;5093499;28;20048;-60
2022/11/08 10:16:30;;;;;;;18.85;8.40;;;;;;;15.46;56.20;96998.09;5093449;28;20080;-61
2022/11/08 10:19:27;;;;;;;14.23;8.75;;;;;;;15.56;55.78;96993.22;5093358;28;20102;-61
2022/11/08 10:21:59;;;;;;;22.88;8.15;;;;;;;15.46;55.70;96987.56;5093366;28;20044;-61
2022/11/08 10:24:34;;;;;;;21.73;8.38;;;;;;;15.43;55.55;96991.22;5093134;28;20058;-61
2022/11/08 10:27:03;;;;;;;17.70;8.60;;;;;;;15.44;56.31;96992.06;5093435;28;20047;-61
2022/11/08 10:29:35;;;;;;;20.05;8.63;;;;;;;15.47;55.85;96994.56;5093264;28;20051;-61
2022/11/08 10:32:13;;;;;;;19.25;8.90;;;;;;;15.46;56.02;96988.41;5093329;28;20048;-60
2022/11/08 10:34:47;;;;;;;17.88;8.93;;;;;;;15.45;55.54;96992.00;5093276;28;20463;-61
2022/11/08 10:37:16;;;;;;;13.55;9.10;;;;;;;15.48;55.65;96990.97;5093168;28;20545;-62
2022/11/08 10:39:52;;;;;;;15.55;8.88;;;;;;;15.54;55.30;96988.88;5093100;28;20063;-61
2022/11/08 10:42:30;;;;;;;22.50;9.05;;;;;;;15.57;55.40;96992.28;5093217;28;20131;-60
2022/11/08 10:44:57;;;;;;;18.35;9.63;;;;;;;15.56;55.54;96988.78;5093080;28;20044;-60
2022/11/08 10:47:28;;;;;;;20.42;10.98;;;;;;;15.68;55.12;96981.19;5093070;28;20044;-61
2022/11/08 10:49:56;;;;;;;18.77;8.95;;;;;;;15.64;54.32;96976.09;5093171;28;20040;-60
2022/11/08 10:52:32;;;;;;;17.27;9.63;;;;;;;15.61;54.53;96978.00;5093021;28;20048;-60
2022/11/08 10:55:00;;;;;;;16.63;9.48;;;;;;;15.65;54.85;96975.13;5093067;28;20116;-60
2022/11/08 10:57:37;;;;;;;15.20;9.27;;;;;;;15.71;54.77;96973.97;5092969;28;20390;-60
2022/11/08 11:00:24;;;;;;;16.77;9.82;;;;;;;15.76;54.86;96973.72;5092926;28;20079;-61
2022/11/08 11:02:53;;;;;;;12.32;8.18;;;;;;;15.83;54.93;96974.28;5092840;28;20083;-60
2022/11/08 11:05:26;;;;;;;16.05;9.07;;;;;;;15.87;54.28;96968.72;5092974;28;20044;-61
2022/11/08 11:08:16;;;;;;;15.27;7.65;;;;;;;15.93;54.06;96959.66;5092937;28;20295;-60
2022/11/08 11:10:44;;;;;;;14.18;7.93;;;;;;;15.99;54.12;96969.94;5093234;28;20117;-60
2022/11/08 11:13:14;;;;;;;19.67;8.70;;;;;;;16.05;53.63;96963.47;5096976;28;20048;-61
2022/11/08 11:15:47;;;;;;;13.25;7.95;;;;;;;16.11;53.94;96964.91;5096898;28;20450;-60
2022/11/08 11:18:25;;;;;;;15.52;8.32;;;;;;;16.22;54.07;96959.06;5096889;28;20050;-61
2022/11/08 11:21:03;;;;;;;13.15;7.88;;;;;;;16.31;53.33;96960.34;5096684;28;20485;-60
2022/11/08 11:23:40;;;;;;;12.93;7.72;;;;;;;16.36;53.08;96945.97;5096530;28;20105;-61
2022/11/08 11:26:16;;;;;;;14.88;7.93;;;;;;;16.38;52.76;96952.00;5096617;28;20413;-61
2022/11/08 11:29:01;;;;;;;15.63;8.43;;;;;;;16.42;53.12;96950.03;5096718;28;20070;-62
2022/11/08 11:31:28;;;;;;;15.20;8.57;;;;;;;16.46;52.96;96948.94;5096497;28;20067;-61
2022/11/08 11:33:56;;;;;;;16.05;8.68;;;;;;;16.41;52.86;96937.78;5096476;28;20079;-61
2022/11/08 11:36:27;;;;;;;16.33;8.45;;;;;;;16.39;53.01;96940.50;5096448;28;20127;-61
2022/11/08 11:39:03;;;;;;;14.95;8.48;;;;;;;16.45;52.80;96941.97;5096357;28;20390;-61
2022/11/08 11:41:38;;;;;;;19.45;9.57;;;;;;;16.42;52.74;96945.63;5096418;28;20072;-61
2022/11/08 11:44:15;;;;;;;19.33;9.80;;;;;;;16.42;53.07;96948.25;5096310;28;20456;-61
2022/11/08 11:46:50;;;;;;;16.98;9.18;;;;;;;16.39;53.61;96945.78;5096299;28;20071;-61
2022/11/08 11:49:21;;;;;;;18.27;9.32;;;;;;;16.34;53.49;96941.72;5096215;28;20043;-61
2022/11/08 11:51:51;;;;;;;;;;;;;;;16.32;53.54;96947.06;5096692;28;20055;-61
2022/11/08 11:54:18;;;;;;;23.52;10.48;;;;;;;16.24;53.61;96939.56;5096388;28;20349;-61
2022/11/08 11:56:54;;;;;;;22.33;10.40;;;;;;;16.16;53.86;96941.75;5096045;28;20084;-61
2022/11/08 11:59:51;;;;;;;22.40;10.70;;;;;;;16.17;54.06;96946.94;5096101;28;20067;-61
2022/11/08 12:03:09;;;;;;;23.48;9.55;;;;;;;16.15;53.87;96938.28;5096093;28;20457;-61